Saint Catherine, Egypt
Current Conditions -  °F | °C
As of 10:00 AM on Monday 24 Nov 2014 (Local Time) from HESC Reporting Station
Scattered Clouds Scattered Clouds  
Wind Chill: 10°   Ceiling: Unl
Heat Index: 10°   Visibility: 6mi
Dew Point:   Wind: 12mph
Humidity: 66%   Direction: 330°NNW
Pressure: 30.06"   Gusts: NA
Location:  28.56°N, 33.98°E
Report Text: HESC 240800Z 33010KT 9999 SCT020 10/04 Q1018 NOSIG
Loading
Personal Weather Stations






























Interactive Weather Map New forecast layout! Learn more

10-Day Weather Forecast

Advertisements
Track Severe Weather on mobile